Time;durP1;ratioP1;P1;durP2;ratioP2;P2;SDS_P1;SDS_P2;PMS_P1;PMS_P2;Temp;Humidity;BMP_temperature;BMP_pressure;BME280_temperature;BME280_humidity;BME280_pressure;Samples;Min_cycle;Max_cycle;Signal;HPM_P1;HPM_P2
2021/11/11 00:00:08;;;;;;;0.23;0.13;;;11.70;99.90;;;;;;5013568;28;20247;-63
2021/11/11 00:02:34;;;;;;;0.43;0.38;;;11.70;99.90;;;;;;5013805;28;20232;-65
2021/11/11 00:05:00;;;;;;;0.30;0.20;;;11.80;99.90;;;;;;5013766;28;20572;-65
2021/11/11 00:07:25;;;;;;;2.23;0.93;;;11.60;99.90;;;;;;4996173;28;20224;-65
2021/11/11 00:09:51;;;;;;;0.30;0.20;;;11.50;99.90;;;;;;5013478;28;20764;-64
2021/11/11 00:12:16;;;;;;;0.20;0.20;;;11.40;99.90;;;;;;4996556;28;20179;-64
2021/11/11 00:14:42;;;;;;;0.30;0.30;;;11.50;99.90;;;;;;5013895;28;20586;-64
2021/11/11 00:17:08;;;;;;;0.30;0.20;;;11.70;99.90;;;;;;4996703;28;20186;-64
2021/11/11 00:19:33;;;;;;;0.50;0.50;;;11.70;99.90;;;;;;5013444;28;20355;-62
2021/11/11 00:21:59;;;;;;;0.30;0.20;;;11.60;99.90;;;;;;5013907;28;20641;-65
2021/11/11 00:24:24;;;;;;;0.30;0.20;;;11.70;99.90;;;;;;5013568;28;20604;-63
2021/11/11 00:27:20;;;;;;;0.30;0.20;;;11.70;99.90;;;;;;5022781;28;20608;-64
2021/11/11 00:30:18;;;;;;;16.92;15.25;;;11.50;99.90;;;;;;5005395;28;20633;-63
2021/11/11 00:33:38;;;;;;;0.25;0.10;;;11.50;99.90;;;;;;5022756;28;20189;-64
2021/11/11 00:35:54;;;;;;;0.30;0.20;;;11.60;99.90;;;;;;5013285;28;20222;-64
2021/11/11 00:38:20;;;;;;;0.85;0.85;;;11.40;99.90;;;;;;5014987;28;20259;-64
2021/11/11 00:40:45;;;;;;;1.00;0.73;;;11.60;99.90;;;;;;5000534;28;20178;-65
2021/11/11 00:43:11;;;;;;;0.30;0.20;;;11.70;99.90;;;;;;5017298;28;20247;-65
2021/11/11 00:45:38;;;;;;;0.30;0.20;;;11.80;99.90;;;;;;5017278;28;20280;-65
2021/11/11 00:48:05;;;;;;;0.20;0.20;;;11.70;99.90;;;;;;5016855;28;20236;-62
2021/11/11 00:50:32;;;;;;;0.30;0.20;;;11.70;99.90;;;;;;4999704;28;20502;-64
2021/11/11 00:52:58;;;;;;;0.20;0.20;;;11.80;99.90;;;;;;4999804;28;20178;-65
2021/11/11 00:55:24;;;;;;;0.20;0.10;;;11.90;99.90;;;;;;5016710;28;20213;-66
2021/11/11 00:57:51;;;;;;;0.82;0.82;;;11.80;99.90;;;;;;5016858;28;20600;-66
2021/11/11 01:00:18;;;;;;;0.30;0.20;;;11.50;99.90;;;;;;4999463;28;20178;-65
2021/11/11 01:02:46;;;;;;;3.55;3.28;;;11.60;99.90;;;;;;5016813;28;20616;-65
2021/11/11 01:05:12;;;;;;;0.20;0.10;;;11.50;99.90;;;;;;5016587;28;20523;-65
2021/11/11 01:07:39;;;;;;;0.20;0.10;;;11.60;99.90;;;;;;5016531;28;20217;-66
2021/11/11 01:10:09;;;;;;;0.30;0.20;;;11.80;99.90;;;;;;5016253;28;20281;-64
2021/11/11 01:12:35;;;;;;;0.30;0.20;;;11.90;99.90;;;;;;5016673;28;20197;-64
2021/11/11 01:15:05;;;;;;;0.30;0.20;;;11.70;99.90;;;;;;5017105;28;20623;-63
2021/11/11 01:17:30;;;;;;;0.30;0.20;;;11.60;99.90;;;;;;5016631;28;20261;-65
2021/11/11 01:19:57;;;;;;;0.30;0.20;;;11.60;99.90;;;;;;4998968;28;20281;-62
2021/11/11 01:22:23;;;;;;;1.05;0.82;;;11.60;99.90;;;;;;5016471;28;20233;-63
2021/11/11 01:24:48;;;;;;;0.30;0.20;;;11.70;99.90;;;;;;5016308;28;20190;-64
2021/11/11 01:27:14;;;;;;;0.23;0.17;;;11.70;99.90;;;;;;5016153;28;20507;-63
2021/11/11 01:29:40;;;;;;;0.30;0.20;;;11.70;99.90;;;;;;5016297;28;20260;-64
2021/11/11 01:32:06;;;;;;;0.30;0.20;;;11.80;99.90;;;;;;5016140;28;20428;-64
2021/11/11 01:34:32;;;;;;;0.20;0.20;;;11.80;99.90;;;;;;5016446;28;20437;-64
2021/11/11 01:36:57;;;;;;;0.20;0.10;;;11.50;99.90;;;;;;4998958;28;20429;-63
2021/11/11 01:39:23;;;;;;;0.30;0.20;;;11.60;99.90;;;;;;4998393;28;20193;-64
2021/11/11 01:41:49;;;;;;;1.10;1.00;;;11.70;99.90;;;;;;5016038;28;20264;-64
2021/11/11 01:44:17;;;;;;;0.50;0.50;;;11.90;99.90;;;;;;5015947;28;20178;-65
2021/11/11 01:46:43;;;;;;;0.20;0.20;;;11.70;99.90;;;;;;5015855;28;20210;-64
2021/11/11 01:49:09;;;;;;;0.28;0.10;;;11.80;99.90;;;;;;5015598;28;20261;-65
2021/11/11 01:51:36;;;;;;;0.53;0.50;;;12.00;99.90;;;;;;5015804;28;20272;-64
2021/11/11 01:54:02;;;;;;;0.30;0.20;;;11.80;99.90;;;;;;5015589;28;20846;-63
2021/11/11 01:56:28;;;;;;;0.30;0.10;;;11.50;99.90;;;;;;5015716;28;20189;-63
2021/11/11 01:58:53;;;;;;;0.30;0.20;;;11.50;99.90;;;;;;5015435;28;20186;-63
2021/11/11 02:01:19;;;;;;;0.30;0.20;;;11.30;99.90;;;;;;5015965;28;20182;-64
2021/11/11 02:03:46;;;;;;;0.30;0.20;;;11.30;99.90;;;;;;5015564;28;20183;-65
2021/11/11 02:06:12;;;;;;;0.88;0.88;;;11.30;99.90;;;;;;5015279;28;20272;-63
2021/11/11 02:08:38;;;;;;;0.40;0.40;;;11.40;99.90;;;;;;5015161;28;20188;-65
2021/11/11 02:11:04;;;;;;;0.20;0.10;;;11.60;99.90;;;;;;5015664;28;20182;-63
2021/11/11 02:13:30;;;;;;;0.20;0.10;;;11.70;99.90;;;;;;5015325;28;20826;-63
2021/11/11 02:15:55;;;;;;;0.30;0.20;;;11.70;99.90;;;;;;5015395;28;20213;-63
2021/11/11 02:18:21;;;;;;;0.20;0.20;;;11.90;99.90;;;;;;5015009;28;20190;-63
2021/11/11 02:20:47;;;;;;;0.30;0.20;;;11.70;99.90;;;;;;5015127;28;20174;-63
2021/11/11 02:23:17;;;;;;;0.20;0.20;;;11.70;99.90;;;;;;5015345;28;20206;-63
2021/11/11 02:25:43;;;;;;;0.57;0.57;;;11.80;99.90;;;;;;5015240;28;20612;-64
2021/11/11 02:28:14;;;;;;;0.20;0.10;;;11.60;99.90;;;;;;5014989;28;20559;-63
2021/11/11 02:30:44;;;;;;;0.30;0.20;;;11.70;99.90;;;;;;5015137;28;20175;-63
2021/11/11 02:33:16;;;;;;;0.30;0.10;;;11.70;99.90;;;;;;5015046;28;20509;-65
2021/11/11 02:35:42;;;;;;;0.28;0.17;;;11.80;99.90;;;;;;5015398;28;20182;-63
2021/11/11 02:38:09;;;;;;;0.30;0.20;;;11.70;99.90;;;;;;4997271;28;20197;-63
2021/11/11 02:40:36;;;;;;;0.32;0.20;;;11.70;99.90;;;;;;5014798;28;20440;-63
2021/11/11 02:43:02;;;;;;;0.25;0.17;;;11.70;99.90;;;;;;5014817;28;20516;-63
2021/11/11 02:45:31;;;;;;;1.85;1.08;;;11.70;99.90;;;;;;5014759;28;20658;-62
2021/11/11 02:47:58;;;;;;;0.30;0.20;;;11.60;99.90;;;;;;5014620;28;20312;-64
2021/11/11 02:50:25;;;;;;;0.30;0.25;;;11.70;99.90;;;;;;5014982;28;20190;-64
2021/11/11 02:52:52;;;;;;;0.30;0.25;;;11.70;99.90;;;;;;5015081;28;20209;-63
2021/11/11 02:55:18;;;;;;;0.20;0.20;;;11.50;99.90;;;;;;5015040;28;20177;-64
2021/11/11 02:57:46;;;;;;;0.28;0.20;;;11.50;99.90;;;;;;5014917;28;20178;-64
2021/11/11 03:00:35;;;;;;;0.30;0.20;;;11.50;99.90;;;;;;4997244;28;20186;-64
2021/11/11 03:03:01;;;;;;;0.25;0.20;;;11.60;99.90;;;;;;5004175;28;20194;-65
2021/11/11 03:05:32;;;;;;;0.80;0.80;;;11.50;99.90;;;;;;5015206;28;20187;-64
2021/11/11 03:07:58;;;;;;;0.30;0.20;;;11.50;99.90;;;;;;5014617;28;20170;-63
2021/11/11 03:10:28;;;;;;;0.30;0.20;;;11.40;99.90;;;;;;5014372;28;20249;-63
2021/11/11 03:12:55;;;;;;;0.30;0.20;;;11.40;99.90;;;;;;5014657;28;20944;-62
2021/11/11 03:15:23;;;;;;;0.30;0.30;;;11.50;99.90;;;;;;5014374;28;20178;-62
2021/11/11 03:17:51;;;;;;;0.20;0.10;;;11.40;99.90;;;;;;5014470;28;20186;-63
2021/11/11 03:20:17;;;;;;;0.75;0.60;;;11.40;99.90;;;;;;5014443;28;20284;-64
2021/11/11 03:22:44;;;;;;;0.30;0.20;;;11.40;99.90;;;;;;4997508;28;20624;-65
2021/11/11 03:25:11;;;;;;;0.20;0.20;;;11.40;99.90;;;;;;5014422;28;20219;-65
2021/11/11 03:27:38;;;;;;;2.00;1.90;;;11.50;99.90;;;;;;5014097;28;20206;-64
2021/11/11 03:30:07;;;;;;;0.93;0.93;;;11.50;99.90;;;;;;5013997;28;20175;-64
2021/11/11 03:32:32;;;;;;;0.80;0.77;;;11.40;99.90;;;;;;5014040;28;20193;-64
2021/11/11 03:34:58;;;;;;;3.37;3.10;;;11.40;99.90;;;;;;5014243;28;20178;-62
2021/11/11 03:37:23;;;;;;;0.20;0.10;;;11.30;99.90;;;;;;5013827;28;20182;-62
2021/11/11 03:39:50;;;;;;;0.30;0.20;;;11.40;99.90;;;;;;5014134;28;20545;-63
2021/11/11 03:42:16;;;;;;;0.30;0.30;;;11.60;99.90;;;;;;5014354;28;20186;-64
2021/11/11 03:44:43;;;;;;;0.20;0.10;;;11.60;99.90;;;;;;5014654;28;20521;-67
2021/11/11 03:47:09;;;;;;;0.30;0.20;;;11.80;99.90;;;;;;5014341;28;20304;-64
2021/11/11 03:49:37;;;;;;;0.57;0.30;;;11.60;99.90;;;;;;5014278;28;20179;-65
2021/11/11 03:52:03;;;;;;;0.20;0.20;;;11.50;99.90;;;;;;5014140;28;20182;-65
2021/11/11 03:54:32;;;;;;;0.20;0.10;;;11.40;99.90;;;;;;5014917;28;20189;-68
2021/11/11 03:56:58;;;;;;;0.20;0.20;;;11.40;99.90;;;;;;5014695;28;20221;-63
2021/11/11 03:59:25;;;;;;;0.32;0.20;;;11.50;99.90;;;;;;5014957;28;20241;-64
2021/11/11 04:01:51;;;;;;;0.50;0.50;;;11.70;99.90;;;;;;5015063;28;20170;-63
2021/11/11 04:04:17;;;;;;;0.30;0.20;;;11.70;99.90;;;;;;5014526;28;20623;-65
2021/11/11 04:06:43;;;;;;;1.80;1.38;;;11.60;99.90;;;;;;5014991;28;20465;-64
2021/11/11 04:09:09;;;;;;;0.30;0.20;;;11.50;99.90;;;;;;5014771;28;20181;-65
2021/11/11 04:11:36;;;;;;;0.83;0.83;;;11.50;99.90;;;;;;5014457;28;20469;-65
2021/11/11 04:14:03;;;;;;;0.20;0.10;;;11.40;99.90;;;;;;5016243;28;20178;-66
2021/11/11 04:16:29;;;;;;;0.55;0.55;;;11.50;99.90;;;;;;4984931;28;20190;-63
2021/11/11 04:18:55;;;;;;;0.77;0.77;;;11.30;99.90;;;;;;5000693;28;20182;-65
2021/11/11 04:21:20;;;;;;;1.15;1.10;;;11.10;99.90;;;;;;5018209;28;20491;-63
2021/11/11 04:23:48;;;;;;;0.73;0.73;;;11.10;99.90;;;;;;5018180;28;20182;-64
2021/11/11 04:26:20;;;;;;;0.20;0.10;;;11.10;99.90;;;;;;5000337;28;20245;-64
2021/11/11 04:29:02;;;;;;;0.30;0.20;;;11.00;99.90;;;;;;5001599;28;20175;-64
2021/11/11 04:31:32;;;;;;;0.30;0.30;;;11.10;99.90;;;;;;5018914;28;20186;-63
2021/11/11 04:34:04;;;;;;;1.92;1.30;;;11.20;99.90;;;;;;5018712;28;20174;-64
2021/11/11 04:41:58;;;;;;;0.30;0.20;;;10.70;99.90;;;;;;5017776;28;20515;-65
2021/11/11 04:44:32;;;;;;;1.88;1.77;;;11.00;99.90;;;;;;5018010;28;20170;-64
2021/11/11 04:47:27;;;;;;;1.42;1.40;;;11.30;99.90;;;;;;4986228;28;20233;-64
2021/11/11 04:52:46;;;;;;;0.30;0.20;;;11.10;99.90;;;;;;5018298;28;20189;-64
2021/11/11 05:01:10;;;;;;;0.98;0.95;;;11.00;99.90;;;;;;5018396;28;20229;-64
2021/11/11 05:03:37;;;;;;;3.88;3.72;;;10.90;99.90;;;;;;5018599;28;20185;-63
2021/11/11 05:06:04;;;;;;;0.20;0.20;;;11.00;99.90;;;;;;5017639;28;20202;-63
2021/11/11 05:08:30;;;;;;;0.25;0.17;;;10.90;99.90;;;;;;5017832;28;20196;-63
2021/11/11 05:10:57;;;;;;;4.82;3.88;;;11.00;99.90;;;;;;5017675;28;20250;-64
2021/11/11 05:13:24;;;;;;;0.20;0.20;;;10.90;99.90;;;;;;5017001;28;20192;-64
2021/11/11 05:15:49;;;;;;;4.35;3.53;;;10.80;99.90;;;;;;5017696;28;20186;-63
2021/11/11 05:18:15;;;;;;;1.27;1.17;;;10.80;99.90;;;;;;5017335;28;20550;-64
2021/11/11 05:20:41;;;;;;;0.20;0.20;;;10.90;99.90;;;;;;5000183;28;20532;-64
2021/11/11 05:23:07;;;;;;;0.67;0.50;;;10.90;99.90;;;;;;5017472;28;20436;-64
2021/11/11 05:25:32;;;;;;;0.30;0.20;;;10.90;99.90;;;;;;4999068;28;20197;-64
2021/11/11 05:27:58;;;;;;;0.40;0.40;;;11.00;99.90;;;;;;5016244;28;20208;-64
2021/11/11 05:30:24;;;;;;;0.53;0.53;;;11.00;99.90;;;;;;4999185;28;20189;-64
2021/11/11 05:32:50;;;;;;;0.30;0.20;;;10.90;99.90;;;;;;5016613;28;20225;-64
2021/11/11 05:35:16;;;;;;;0.30;0.20;;;10.90;99.90;;;;;;5016575;28;20531;-63
2021/11/11 05:37:43;;;;;;;0.20;0.20;;;11.00;99.90;;;;;;5016151;28;20579;-63
2021/11/11 05:40:10;;;;;;;0.30;0.20;;;11.20;99.90;;;;;;5015805;28;20602;-62
2021/11/11 05:42:36;;;;;;;0.30;0.30;;;11.20;99.90;;;;;;5015951;28;20313;-65
2021/11/11 05:45:04;;;;;;;1.30;1.20;;;11.40;99.90;;;;;;5015869;28;20608;-64
2021/11/11 05:47:30;;;;;;;0.95;0.95;;;11.30;99.90;;;;;;5015786;28;20530;-64
2021/11/11 05:49:56;;;;;;;0.33;0.30;;;11.10;99.90;;;;;;5015499;28;20527;-65
2021/11/11 05:52:22;;;;;;;0.20;0.20;;;11.00;99.90;;;;;;5015735;28;20251;-64
2021/11/11 05:54:48;;;;;;;3.63;2.00;;;11.10;99.90;;;;;;5015623;28;20224;-65
2021/11/11 05:57:14;;;;;;;1.43;0.67;;;11.10;99.90;;;;;;4998287;28;20516;-65
2021/11/11 05:59:39;;;;;;;0.50;0.50;;;11.10;99.90;;;;;;5015254;28;20460;-64
2021/11/11 06:02:07;;;;;;;4.10;0.93;;;11.10;99.90;;;;;;5015813;28;20186;-63
2021/11/11 06:04:32;;;;;;;1.77;1.70;;;11.20;99.90;;;;;;5015552;28;20633;-65
2021/11/11 06:06:58;;;;;;;0.20;0.20;;;11.00;99.90;;;;;;5015283;28;20295;-65
2021/11/11 06:09:23;;;;;;;1.67;1.23;;;11.10;99.90;;;;;;5015198;28;20178;-66
2021/11/11 06:11:49;;;;;;;1.23;1.13;;;11.00;99.90;;;;;;5015437;28;20236;-65
2021/11/11 06:14:15;;;;;;;0.20;0.13;;;10.90;99.90;;;;;;5015169;28;20198;-65
2021/11/11 06:16:40;;;;;;;1.53;1.53;;;10.90;99.90;;;;;;5015490;28;20553;-65
2021/11/11 06:19:08;;;;;;;4.20;2.93;;;11.00;99.90;;;;;;5014886;28;20178;-65
2021/11/11 06:21:34;;;;;;;0.45;0.45;;;10.80;99.90;;;;;;5015131;28;20186;-65
2021/11/11 06:23:59;;;;;;;1.13;1.13;;;10.90;99.90;;;;;;4997578;28;20515;-65
2021/11/11 06:26:25;;;;;;;0.30;0.20;;;11.00;99.90;;;;;;5014914;28;20653;-65
2021/11/11 06:28:51;;;;;;;5.00;1.80;;;10.80;99.90;;;;;;5014638;28;20183;-64
2021/11/11 06:31:17;;;;;;;2.35;2.15;;;11.00;99.90;;;;;;5015328;28;20591;-63
2021/11/11 06:33:43;;;;;;;1.10;1.00;;;11.10;99.90;;;;;;5014890;28;20240;-63
2021/11/11 06:36:09;;;;;;;0.30;0.20;;;11.20;99.90;;;;;;4996606;28;20186;-62
2021/11/11 06:38:35;;;;;;;0.38;0.38;;;11.20;99.90;;;;;;5014428;28;20190;-63
2021/11/11 06:41:01;;;;;;;2.20;0.97;;;11.00;99.90;;;;;;5012054;28;20198;-66
2021/11/11 06:43:27;;;;;;;3.40;2.43;;;11.00;99.90;;;;;;5014597;28;20269;-64
2021/11/11 06:45:53;;;;;;;0.30;0.20;;;10.90;99.90;;;;;;5022185;28;20476;-66
2021/11/11 06:48:18;;;;;;;0.30;0.30;;;11.00;99.90;;;;;;5015289;28;20507;-63
2021/11/11 06:50:45;;;;;;;0.20;0.20;;;11.10;99.90;;;;;;5032403;28;20525;-66
2021/11/11 06:53:15;;;;;;;0.28;0.20;;;10.90;99.90;;;;;;5035749;28;20599;-63
2021/11/11 06:55:42;;;;;;;2.03;1.92;;;11.10;99.90;;;;;;5034306;28;20220;-63
2021/11/11 06:58:09;;;;;;;3.13;2.38;;;11.10;99.90;;;;;;5033723;28;20188;-63
2021/11/11 07:00:35;;;;;;;1.33;1.25;;;11.00;99.90;;;;;;5033987;28;20193;-65
2021/11/11 07:03:01;;;;;;;0.52;0.52;;;10.90;99.90;;;;;;5034052;28;20181;-64
2021/11/11 07:05:26;;;;;;;2.83;2.63;;;11.00;99.90;;;;;;5034116;28;20615;-65
2021/11/11 07:07:52;;;;;;;1.63;1.53;;;11.00;99.90;;;;;;5033839;28;20208;-65
2021/11/11 07:10:18;;;;;;;2.93;2.23;;;11.10;99.90;;;;;;5033906;28;20174;-66
2021/11/11 07:12:44;;;;;;;8.15;7.32;;;10.90;99.90;;;;;;5033898;28;20197;-66
2021/11/11 07:15:11;;;;;;;5.23;1.77;;;10.90;99.90;;;;;;5016267;28;20233;-66
2021/11/11 07:17:38;;;;;;;2.78;2.67;;;10.90;99.90;;;;;;5033507;28;20794;-65
2021/11/11 07:20:07;;;;;;;2.03;1.95;;;10.90;99.90;;;;;;5013455;28;20580;-65
2021/11/11 07:22:33;;;;;;;0.50;0.50;;;11.00;99.90;;;;;;4996819;28;20256;-65
2021/11/11 07:24:58;;;;;;;0.97;0.60;;;11.00;99.90;;;;;;5014169;28;20612;-66
2021/11/11 07:27:24;;;;;;;1.40;1.40;;;11.00;99.90;;;;;;5014884;28;20194;-65
2021/11/11 07:29:50;;;;;;;0.20;0.20;;;11.10;99.90;;;;;;4993260;28;20646;-65
2021/11/11 07:32:16;;;;;;;1.33;1.33;;;11.00;99.90;;;;;;5013818;28;20178;-67
2021/11/11 07:34:42;;;;;;;0.30;0.20;;;11.20;99.90;;;;;;4996077;28;20440;-66
2021/11/11 07:37:07;;;;;;;0.30;0.10;;;11.10;99.90;;;;;;5013637;28;20477;-65
2021/11/11 07:39:34;;;;;;;1.40;1.40;;;11.20;99.90;;;;;;5013603;28;20200;-65
2021/11/11 07:41:59;;;;;;;2.40;2.20;;;11.30;99.90;;;;;;5013704;28;20197;-65
2021/11/11 07:44:25;;;;;;;0.47;0.43;;;11.30;99.90;;;;;;4999545;28;20182;-66
2021/11/11 07:46:51;;;;;;;1.40;1.30;;;11.30;99.90;;;;;;5013547;28;20296;-66
2021/11/11 07:49:17;;;;;;;0.70;0.70;;;11.30;99.90;;;;;;5013246;28;20212;-67
2021/11/11 07:51:43;;;;;;;2.30;1.43;;;11.30;99.90;;;;;;5013558;28;20429;-65
2021/11/11 07:54:09;;;;;;;2.30;2.20;;;11.30;99.90;;;;;;5013410;28;20189;-65
2021/11/11 07:56:35;;;;;;;3.17;2.85;;;11.30;99.90;;;;;;5014488;28;20216;-64
2021/11/11 07:59:03;;;;;;;0.63;0.63;;;11.30;99.90;;;;;;5013310;28;20178;-65
2021/11/11 08:01:28;;;;;;;1.80;1.67;;;11.20;99.90;;;;;;5013636;28;20269;-66
2021/11/11 08:03:54;;;;;;;0.40;0.40;;;11.20;99.90;;;;;;5013227;28;20222;-66
2021/11/11 08:06:20;;;;;;;4.33;4.10;;;11.30;99.90;;;;;;4996228;28;20229;-66
2021/11/11 08:08:46;;;;;;;0.90;0.77;;;11.40;99.90;;;;;;5013143;28;20437;-65
2021/11/11 08:11:11;;;;;;;0.70;0.70;;;11.50;99.90;;;;;;5013308;28;20209;-66
2021/11/11 08:13:37;;;;;;;2.00;0.67;;;11.70;99.90;;;;;;5013355;28;20229;-66
2021/11/11 08:16:03;;;;;;;0.43;0.40;;;11.70;99.90;;;;;;5012967;28;20273;-67
2021/11/11 08:18:29;;;;;;;0.47;0.47;;;11.70;99.90;;;;;;5013246;28;20178;-67
2021/11/11 08:20:54;;;;;;;0.40;0.30;;;11.80;99.90;;;;;;5013227;28;20186;-67
2021/11/11 08:23:20;;;;;;;0.20;0.10;;;11.70;99.90;;;;;;5013206;28;20529;-68
2021/11/11 08:25:48;;;;;;;0.30;0.20;;;11.80;99.90;;;;;;5013327;28;20190;-68
2021/11/11 08:28:21;;;;;;;2.67;1.05;;;11.80;99.90;;;;;;5013162;28;20179;-68
2021/11/11 08:30:48;;;;;;;1.92;1.83;;;11.70;99.90;;;;;;5013223;28;20178;-68
2021/11/11 08:33:14;;;;;;;4.88;3.20;;;11.70;99.90;;;;;;5013336;28;20178;-68
2021/11/11 08:35:41;;;;;;;0.50;0.50;;;11.60;99.90;;;;;;4995554;28;20320;-68
2021/11/11 08:38:07;;;;;;;1.25;1.15;;;11.50;99.90;;;;;;5012224;28;20208;-68
2021/11/11 08:40:32;;;;;;;0.87;0.87;;;11.40;99.90;;;;;;5013211;28;20171;-68
2021/11/11 08:42:59;;;;;;;8.87;2.73;;;11.50;99.90;;;;;;5013119;28;20182;-69
2021/11/11 08:45:27;;;;;;;5.20;4.32;;;11.60;99.90;;;;;;4995854;28;20852;-68
2021/11/11 08:47:54;;;;;;;0.30;0.20;;;11.60;99.90;;;;;;5013029;28;20214;-69
2021/11/11 08:50:21;;;;;;;1.00;0.95;;;11.70;99.90;;;;;;5012776;28;20182;-68
2021/11/11 08:52:53;;;;;;;2.70;2.60;;;11.80;99.90;;;;;;5013518;28;20186;-67
2021/11/11 08:55:20;;;;;;;0.98;0.98;;;12.00;99.90;;;;;;5012548;28;20178;-66
2021/11/11 08:57:46;;;;;;;2.25;2.15;;;11.90;99.90;;;;;;5012722;28;20284;-66
2021/11/11 09:00:19;;;;;;;1.80;1.70;;;11.70;99.90;;;;;;5014952;28;20182;-66
2021/11/11 09:02:47;;;;;;;4.03;2.55;;;11.70;99.90;;;;;;5016510;28;20486;-66
2021/11/11 09:05:14;;;;;;;1.17;1.13;;;11.60;99.90;;;;;;5016236;28;20193;-66
2021/11/11 09:07:40;;;;;;;3.70;3.55;;;11.70;99.90;;;;;;5016697;28;20210;-65
2021/11/11 09:10:12;;;;;;;2.73;2.53;;;11.80;99.90;;;;;;5016504;28;20627;-65
2021/11/11 09:12:38;;;;;;;2.67;2.53;;;12.00;99.90;;;;;;5016407;28;20566;-65
2021/11/11 09:15:07;;;;;;;2.90;0.95;;;12.10;99.90;;;;;;4999682;28;20204;-66
2021/11/11 09:17:33;;;;;;;1.33;1.17;;;12.10;99.90;;;;;;5001608;28;20285;-65
2021/11/11 09:19:59;;;;;;;3.92;3.70;;;12.00;99.90;;;;;;5004175;28;20324;-65
2021/11/11 09:22:25;;;;;;;4.93;3.05;;;12.00;99.90;;;;;;5016591;28;20248;-65
2021/11/11 09:24:51;;;;;;;1.63;1.55;;;12.20;99.90;;;;;;5016080;28;20194;-67
2021/11/11 09:27:16;;;;;;;1.23;0.80;;;12.30;99.90;;;;;;5014379;28;20209;-67
2021/11/11 09:29:42;;;;;;;0.40;0.33;;;12.30;99.90;;;;;;5015491;28;20257;-67
2021/11/11 09:32:08;;;;;;;0.83;0.80;;;12.20;99.90;;;;;;5014721;28;20178;-67
2021/11/11 09:34:34;;;;;;;1.83;1.73;;;12.40;99.90;;;;;;5016170;28;20244;-67
2021/11/11 09:36:59;;;;;;;2.25;2.05;;;12.50;99.90;;;;;;5015432;28;20565;-67
2021/11/11 09:39:25;;;;;;;1.03;1.03;;;12.40;99.90;;;;;;5015375;28;20240;-67
2021/11/11 09:41:53;;;;;;;2.20;2.00;;;12.50;99.90;;;;;;5015447;28;20212;-67
2021/11/11 09:44:19;;;;;;;4.30;3.92;;;12.30;99.90;;;;;;5014193;28;20182;-68
2021/11/11 09:46:46;;;;;;;2.25;0.57;;;12.30;99.90;;;;;;5012634;28;20202;-69
2021/11/11 09:49:12;;;;;;;3.42;3.17;;;12.30;99.90;;;;;;5008230;28;20194;-69
2021/11/11 09:51:41;;;;;;;0.40;0.30;;;12.30;99.90;;;;;;5015192;28;20782;-66
2021/11/11 09:59:25;;;;;;;0.30;0.20;;;12.20;99.90;;;;;;5015527;28;20201;-68
2021/11/11 10:01:52;;;;;;;3.03;2.38;;;12.20;99.90;;;;;;5014414;28;20186;-68
2021/11/11 10:04:18;;;;;;;4.18;3.15;;;12.20;99.90;;;;;;5014754;28;20615;-66
2021/11/11 10:06:44;;;;;;;2.58;0.95;;;12.30;99.90;;;;;;5015276;28;20220;-69
2021/11/11 10:09:15;;;;;;;3.70;3.30;;;12.20;99.90;;;;;;5014917;28;20209;-70
2021/11/11 10:11:50;;;;;;;1.30;1.10;;;12.20;99.90;;;;;;5013743;28;20205;-68
2021/11/11 10:14:26;;;;;;;11.07;4.25;;;12.40;99.90;;;;;;5015358;28;20228;-67
2021/11/11 10:16:59;;;;;;;1.20;1.10;;;12.30;99.90;;;;;;5014403;28;20285;-65
2021/11/11 10:19:27;;;;;;;2.20;2.00;;;12.40;99.90;;;;;;5015954;28;20523;-68
2021/11/11 10:21:57;;;;;;;5.05;3.95;;;12.50;99.90;;;;;;5005842;28;20518;-63
2021/11/11 10:25:00;;;;;;;2.38;1.67;;;12.70;99.90;;;;;;5014487;28;20276;-63
2021/11/11 10:30:05;;;;;;;1.98;1.88;;;12.70;99.90;;;;;;5002735;28;20251;-64
2021/11/11 10:32:38;;;;;;;3.33;3.22;;;12.70;99.90;;;;;;5009048;28;20179;-65
2021/11/11 10:35:15;;;;;;;0.30;0.20;;;12.50;99.90;;;;;;5007651;28;20182;-67
2021/11/11 10:37:57;;;;;;;0.55;0.55;;;12.70;99.90;;;;;;5014159;28;20198;-65
2021/11/11 10:40:32;;;;;;;2.88;2.67;;;12.80;99.90;;;;;;5014444;28;20186;-65
2021/11/11 10:43:00;;;;;;;6.07;3.33;;;12.80;99.90;;;;;;5014233;28;20212;-64
2021/11/11 10:45:31;;;;;;;0.68;0.55;;;12.50;99.90;;;;;;5014480;28;20202;-65
2021/11/11 10:48:00;;;;;;;0.95;0.85;;;12.70;99.90;;;;;;5013794;28;20551;-64
2021/11/11 10:50:32;;;;;;;3.45;3.25;;;12.80;99.90;;;;;;5014325;28;20193;-64
2021/11/11 10:53:00;;;;;;;2.78;2.60;;;13.10;99.90;;;;;;5013940;28;20241;-63
2021/11/11 10:55:33;;;;;;;0.65;0.65;;;13.10;99.90;;;;;;5013923;28;20304;-66
2021/11/11 10:58:03;;;;;;;2.58;2.47;;;13.00;99.90;;;;;;5013850;28;20186;-65
2021/11/11 11:00:40;;;;;;;3.33;2.47;;;13.10;99.90;;;;;;5014159;28;20247;-64
2021/11/11 11:03:09;;;;;;;0.30;0.20;;;13.30;99.90;;;;;;5014167;28;20632;-64
2021/11/11 11:06:05;;;;;;;0.50;0.30;;;13.40;75.20;;;;;;5013457;28;20182;-63
2021/11/11 11:08:47;;;;;;;2.65;2.17;;;13.60;54.10;;;;;;5014246;28;20190;-65
2021/11/11 11:11:23;;;;;;;5.90;2.95;;;13.90;1.00;;;;;;5014061;28;20185;-65
2021/11/11 11:14:02;;;;;;;2.78;2.58;;;13.80;1.00;;;;;;5011451;28;20197;-67
2021/11/11 11:16:33;;;;;;;0.85;0.85;;;13.50;1.00;;;;;;5014083;28;20182;-66
2021/11/11 11:19:03;;;;;;;2.83;2.65;;;13.40;6.20;;;;;;4996273;28;20236;-64
2021/11/11 11:21:42;;;;;;;4.25;3.10;;;13.50;6.20;;;;;;5013594;28;20220;-64
2021/11/11 11:24:23;;;;;;;0.77;0.77;;;13.60;1.00;;;;;;5013772;28;20239;-64
2021/11/11 11:26:51;;;;;;;2.65;0.68;;;13.20;15.80;;;;;;5013682;28;20264;-64
2021/11/11 11:29:31;;;;;;;1.63;1.52;;;13.50;74.60;;;;;;4996091;28;20233;-65
2021/11/11 11:32:08;;;;;;;0.30;0.20;;;13.60;1.00;;;;;;5013630;28;20259;-66
2021/11/11 11:34:43;;;;;;;5.25;1.95;;;13.70;1.00;;;;;;5013508;28;20173;-65
2021/11/11 11:37:16;;;;;;;1.10;0.98;;;13.50;1.00;;;;;;4995951;28;20178;-67
2021/11/11 11:39:53;;;;;;;0.30;0.20;;;13.30;1.00;;;;;;5013503;28;20264;-65
2021/11/11 11:42:24;;;;;;;1.80;0.90;;;13.30;20.20;;;;;;5010381;28;20505;-65
2021/11/11 11:45:01;;;;;;;1.80;1.70;;;13.10;36.80;;;;;;5008605;28;20194;-65
2021/11/11 11:47:41;;;;;;;0.40;0.30;;;12.90;59.00;;;;;;4998493;28;20240;-65
2021/11/11 11:50:17;;;;;;;3.80;2.50;;;12.70;90.30;;;;;;5000427;28;20209;-63
2021/11/11 11:52:48;;;;;;;1.92;1.80;;;12.70;99.90;;;;;;5014334;28;20515;-64
2021/11/11 11:55:30;;;;;;;0.55;0.50;;;12.50;99.90;;;;;;5002550;28;20276;-65
2021/11/11 11:58:03;;;;;;;1.10;1.10;;;12.50;99.90;;;;;;5006821;28;20177;-68
2021/11/11 12:13:56;;;;;;;0.50;0.50;;;12.10;99.90;;;;;;5013881;28;20261;-66
2021/11/11 12:40:01;;;;;;;0.65;0.65;;;12.10;99.90;;;;;;5016573;28;20209;-67
2021/11/11 12:42:38;;;;;;;4.30;3.88;;;12.40;99.90;;;;;;4937385;29;20272;-68
2021/11/11 12:45:20;;;;;;;3.90;3.53;;;12.40;99.90;;;;;;4938048;29;20611;-66
2021/11/11 12:47:47;;;;;;;2.05;1.95;;;12.20;99.90;;;;;;4992685;28;20316;-65
2021/11/11 12:50:45;;;;;;;1.60;1.48;;;12.10;99.90;;;;;;5032834;28;20177;-67
2021/11/11 12:53:11;;;;;;;2.45;2.33;;;12.20;99.90;;;;;;5019753;28;20280;-67
2021/11/11 12:55:39;;;;;;;1.47;1.37;;;12.30;99.90;;;;;;5037044;28;20257;-67
2021/11/11 12:58:08;;;;;;;3.13;1.83;;;12.20;99.90;;;;;;5036529;28;20264;-67
2021/11/11 13:00:38;;;;;;;2.47;1.75;;;12.00;99.90;;;;;;5037006;28;20193;-65
2021/11/11 13:03:06;;;;;;;0.60;0.60;;;12.00;99.90;;;;;;5033437;28;20177;-68
2021/11/11 13:05:47;;;;;;;0.60;0.50;;;11.80;99.90;;;;;;5013046;28;20187;-64
2021/11/11 13:08:18;;;;;;;6.65;0.82;;;11.90;99.90;;;;;;4995951;28;20191;-64
2021/11/11 13:11:05;;;;;;;3.70;1.58;;;12.00;99.90;;;;;;5014008;28;20193;-66
2021/11/11 13:13:32;;;;;;;0.93;0.82;;;12.20;99.90;;;;;;5016579;28;20166;-64
2021/11/11 13:16:13;;;;;;;4.75;1.50;;;12.30;99.90;;;;;;5016166;28;20205;-67
2021/11/11 13:18:39;;;;;;;0.30;0.10;;;12.40;99.90;;;;;;5000840;28;20181;-65
2021/11/11 13:21:49;;;;;;;0.30;0.20;;;12.40;99.90;;;;;;5016428;28;20612;-65
2021/11/11 13:27:22;;;;;;;0.30;0.20;;;12.40;99.90;;;;;;5003928;28;20201;-67
2021/11/11 15:57:08;;;;;;;0.30;0.20;;;11.70;99.90;;;;;;5013977;28;20189;-69
2021/11/11 16:20:16;;;;;;;0.45;0.45;;;11.60;99.90;;;;;;5011825;28;20236;-66
2021/11/11 16:25:35;;;;;;;2.23;1.43;;;11.50;99.90;;;;;;5018122;28;20495;-63
2021/11/11 16:27:58;;;;;;;0.40;0.20;;;11.60;99.90;;;;;;5016754;28;20487;-70
2021/11/11 16:30:24;;;;;;;0.60;0.40;;;11.50;99.90;;;;;;5016953;28;20690;-67
2021/11/11 16:32:50;;;;;;;1.23;1.23;;;11.50;99.90;;;;;;5015472;28;20228;-66
2021/11/11 16:35:19;;;;;;;0.40;0.40;;;11.70;99.90;;;;;;5000756;28;20616;-67
2021/11/11 16:37:45;;;;;;;1.10;1.10;;;11.60;99.90;;;;;;5016875;28;20517;-67
2021/11/11 16:40:14;;;;;;;0.30;0.20;;;11.50;99.90;;;;;;5016872;28;20190;-67
2021/11/11 16:42:40;;;;;;;0.40;0.40;;;11.60;99.90;;;;;;5017094;28;20192;-67
2021/11/11 16:45:07;;;;;;;0.30;0.20;;;11.80;99.90;;;;;;5006940;28;20182;-64
2021/11/11 16:47:32;;;;;;;1.80;1.70;;;11.80;99.90;;;;;;5016881;28;20533;-67